SAS4016 ENZV-ENGM
Flight info
| Callsign | SAS4016 |
|---|---|
| Flight time | N/A |
| Altitude | 33000 |
| Route | UPLEV DCT OSKOM DCT RIPAM |
| Aircraft | A20N/M-SDE2E3FGHIRWXY/LB1 |
Departure
| Time | 2026-04-21 09:14 |
|---|---|
| Airport | Stavanger Airport, Sola (ENZV) |
Arrival
| Time | N/A |
|---|---|
| Airport | Oslo-Gardermoen International Airport (ENGM) |
| Time | Latitude | Longitude | Altitude | Speed | Heading |
|---|---|---|---|---|---|
| 2026-04-21 08:51 | 58.88239 | 5.63099 | 30 ft | 0 kts | 255° |
| 2026-04-21 09:04 | 58.88240 | 5.63104 | 25 ft | 3 kts | 255° |
| 2026-04-21 09:04 | 58.88245 | 5.63141 | 27 ft | 3 kts | 255° |
| 2026-04-21 09:04 | 58.88249 | 5.63175 | 30 ft | 2 kts | 255° |
| 2026-04-21 09:04 | 58.88253 | 5.63206 | 26 ft | 2 kts | 255° |
| 2026-04-21 09:05 | 58.88257 | 5.63235 | 28 ft | 2 kts | 255° |
| 2026-04-21 09:05 | 58.88260 | 5.63255 | 29 ft | 2 kts | 255° |
| 2026-04-21 09:05 | 58.88264 | 5.63285 | 30 ft | 2 kts | 255° |
| 2026-04-21 09:05 | 58.88266 | 5.63299 | 30 ft | 0 kts | 255° |
| 2026-04-21 09:09 | 58.88265 | 5.63297 | 30 ft | 1 kts | 245° |
| 2026-04-21 09:09 | 58.88260 | 5.63296 | 30 ft | 0 kts | 194° |
| 2026-04-21 09:09 | 58.88241 | 5.63299 | 30 ft | 7 kts | 179° |
| 2026-04-21 09:09 | 58.88155 | 5.63290 | 29 ft | 17 kts | 193° |
| 2026-04-21 09:10 | 58.88045 | 5.63216 | 28 ft | 13 kts | 156° |
| 2026-04-21 09:10 | 58.87997 | 5.63327 | 30 ft | 12 kts | 130° |
| 2026-04-21 09:10 | 58.87927 | 5.63353 | 31 ft | 12 kts | 198° |
| 2026-04-21 09:10 | 58.87838 | 5.63291 | 31 ft | 14 kts | 194° |
| 2026-04-21 09:11 | 58.87728 | 5.63290 | 31 ft | 18 kts | 179° |
| 2026-04-21 09:11 | 58.87610 | 5.63295 | 31 ft | 18 kts | 178° |
| 2026-04-21 09:11 | 58.87486 | 5.63301 | 30 ft | 20 kts | 179° |
| 2026-04-21 09:11 | 58.87336 | 5.63306 | 31 ft | 23 kts | 179° |
| 2026-04-21 09:12 | 58.87181 | 5.63306 | 31 ft | 24 kts | 180° |
| 2026-04-21 09:12 | 58.87019 | 5.63353 | 31 ft | 22 kts | 148° |
| 2026-04-21 09:12 | 58.86983 | 5.63447 | 32 ft | 1 kts | 75° |
| 2026-04-21 09:12 | 58.87002 | 5.63529 | 33 ft | 12 kts | 64° |
| 2026-04-21 09:13 | 58.87047 | 5.63700 | 34 ft | 16 kts | 62° |
| 2026-04-21 09:13 | 58.87114 | 5.63800 | 34 ft | 0 kts | 348° |
| 2026-04-21 09:13 | 58.87129 | 5.63796 | 33 ft | 4 kts | 356° |
| 2026-04-21 09:13 | 58.87140 | 5.63796 | 34 ft | 0 kts | 360° |
| 2026-04-21 09:14 | 58.87224 | 5.63796 | 34 ft | 38 kts | 360° |
| 2026-04-21 09:14 | 58.87748 | 5.63780 | 33 ft | 109 kts | 0° |
| 2026-04-21 09:14 | 58.88622 | 5.63783 | 404 ft | 119 kts | 358° |
| 2026-04-21 09:14 | 58.89432 | 5.63795 | 1041 ft | 124 kts | 1° |
| 2026-04-21 09:15 | 58.90370 | 5.63836 | 1481 ft | 142 kts | 358° |
| 2026-04-21 09:15 | 58.91364 | 5.63757 | 2127 ft | 145 kts | 356° |
| 2026-04-21 09:15 | 58.92466 | 5.63630 | 2501 ft | 171 kts | 356° |
| 2026-04-21 09:15 | 58.93747 | 5.63501 | 2916 ft | 198 kts | 358° |
| 2026-04-21 09:16 | 58.95214 | 5.63450 | 3569 ft | 222 kts | 359° |
| 2026-04-21 09:16 | 58.96839 | 5.63434 | 4343 ft | 245 kts | 359° |
| 2026-04-21 09:16 | 58.98594 | 5.63420 | 5329 ft | 256 kts | 360° |
| 2026-04-21 09:16 | 59.00395 | 5.63394 | 6466 ft | 262 kts | 360° |
| 2026-04-21 09:17 | 59.02240 | 5.63347 | 7553 ft | 268 kts | 0° |
| 2026-04-21 09:17 | 59.04115 | 5.63406 | 8636 ft | 272 kts | 10° |
| 2026-04-21 09:17 | 59.05851 | 5.64697 | 9722 ft | 274 kts | 36° |
| 2026-04-21 09:17 | 59.07146 | 5.67388 | 10783 ft | 276 kts | 61° |
| 2026-04-21 09:18 | 59.07700 | 5.70960 | 11786 ft | 280 kts | 86° |
| 2026-04-21 09:18 | 59.07592 | 5.74765 | 12781 ft | 285 kts | 103° |
| 2026-04-21 09:18 | 59.06738 | 5.78257 | 13761 ft | 292 kts | 127° |
| 2026-04-21 09:18 | 59.05190 | 5.80797 | 14688 ft | 300 kts | 151° |